AVA8514 SKBO-SKCC
Flight info
| Callsign | AVA8514 |
|---|---|
| Flight time | 0h 47m |
| Altitude | 31000 |
| Route | OSUSU4R OSUSU DCT BUV DCT ESNUT ESNUT1K |
| Aircraft | A319/M-SDE3FGHIRWY/LB1 |
Departure
| Time | 2026-05-03 20:33 |
|---|---|
| Airport | El Dorado International Airport (SKBO) |
Arrival
| Time | 2026-05-03 21:20 |
|---|---|
| Airport | Camilo Daza International Airport (SKCC) |
| Time | Latitude | Longitude | Altitude | Speed | Heading |
|---|---|---|---|---|---|
| 2026-05-03 20:15 | 4.70105 | -74.14436 | 8393 ft | 0 kts | 127° |
| 2026-05-03 20:23 | 4.70112 | -74.14444 | 8366 ft | 4 kts | 126° |
| 2026-05-03 20:23 | 4.70127 | -74.14467 | 8367 ft | 4 kts | 121° |
| 2026-05-03 20:23 | 4.70140 | -74.14490 | 8366 ft | 4 kts | 106° |
| 2026-05-03 20:23 | 4.70141 | -74.14514 | 8366 ft | 4 kts | 52° |
| 2026-05-03 20:24 | 4.70138 | -74.14518 | 8366 ft | 0 kts | 37° |
| 2026-05-03 20:26 | 4.70146 | -74.14512 | 8366 ft | 2 kts | 37° |
| 2026-05-03 20:26 | 4.70164 | -74.14498 | 8366 ft | 4 kts | 37° |
| 2026-05-03 20:27 | 4.70195 | -74.14475 | 8366 ft | 7 kts | 37° |
| 2026-05-03 20:27 | 4.70240 | -74.14441 | 8366 ft | 9 kts | 37° |
| 2026-05-03 20:27 | 4.70298 | -74.14398 | 8366 ft | 12 kts | 37° |
| 2026-05-03 20:27 | 4.70369 | -74.14345 | 8366 ft | 14 kts | 36° |
| 2026-05-03 20:28 | 4.70380 | -74.14265 | 8366 ft | 14 kts | 124° |
| 2026-05-03 20:28 | 4.70314 | -74.14178 | 8366 ft | 17 kts | 127° |
| 2026-05-03 20:28 | 4.70238 | -74.14076 | 8366 ft | 19 kts | 127° |
| 2026-05-03 20:28 | 4.70151 | -74.13962 | 8365 ft | 22 kts | 127° |
| 2026-05-03 20:29 | 4.70055 | -74.13834 | 8366 ft | 24 kts | 127° |
| 2026-05-03 20:29 | 4.69950 | -74.13697 | 8366 ft | 26 kts | 128° |
| 2026-05-03 20:29 | 4.69835 | -74.13545 | 8366 ft | 28 kts | 127° |
| 2026-05-03 20:29 | 4.69712 | -74.13382 | 8366 ft | 31 kts | 127° |
| 2026-05-03 20:30 | 4.69579 | -74.13207 | 8366 ft | 32 kts | 127° |
| 2026-05-03 20:30 | 4.69464 | -74.13054 | 8365 ft | 27 kts | 127° |
| 2026-05-03 20:30 | 4.69352 | -74.12906 | 8365 ft | 25 kts | 127° |
| 2026-05-03 20:30 | 4.69248 | -74.12769 | 8365 ft | 25 kts | 127° |
| 2026-05-03 20:31 | 4.69203 | -74.12629 | 8366 ft | 21 kts | 74° |
| 2026-05-03 20:31 | 4.69251 | -74.12507 | 8367 ft | 18 kts | 40° |
| 2026-05-03 20:31 | 4.69314 | -74.12530 | 8367 ft | 10 kts | 308° |
| 2026-05-03 20:31 | 4.69329 | -74.12550 | 8367 ft | 0 kts | 307° |
| 2026-05-03 20:32 | 4.69330 | -74.12550 | 8367 ft | 0 kts | 307° |
| 2026-05-03 20:32 | 4.69355 | -74.12583 | 8366 ft | 26 kts | 307° |
| 2026-05-03 20:32 | 4.69605 | -74.12914 | 8364 ft | 91 kts | 307° |
| 2026-05-03 20:32 | 4.70102 | -74.13573 | 8366 ft | 144 kts | 307° |
| 2026-05-03 20:33 | 4.70791 | -74.14490 | 8394 ft | 183 kts | 304° |
| 2026-05-03 20:33 | 4.71580 | -74.15536 | 8872 ft | 193 kts | 306° |
| 2026-05-03 20:33 | 4.72417 | -74.16647 | 9396 ft | 205 kts | 306° |
| 2026-05-03 20:33 | 4.73352 | -74.17797 | 9618 ft | 223 kts | 318° |
| 2026-05-03 20:34 | 4.74800 | -74.18388 | 9712 ft | 241 kts | 359° |
| 2026-05-03 20:34 | 4.76502 | -74.18074 | 9861 ft | 263 kts | 21° |
| 2026-05-03 20:34 | 4.78225 | -74.17325 | 10369 ft | 274 kts | 28° |
| 2026-05-03 20:34 | 4.79936 | -74.16450 | 11016 ft | 278 kts | 30° |
| 2026-05-03 20:35 | 4.81662 | -74.15560 | 11737 ft | 280 kts | 29° |
| 2026-05-03 20:35 | 4.83412 | -74.14691 | 12465 ft | 282 kts | 28° |
| 2026-05-03 20:35 | 4.85192 | -74.13845 | 13184 ft | 284 kts | 27° |
| 2026-05-03 20:35 | 4.86994 | -74.13006 | 13877 ft | 287 kts | 30° |
| 2026-05-03 20:36 | 4.88591 | -74.11803 | 14320 ft | 294 kts | 46° |
| 2026-05-03 20:36 | 4.90117 | -74.10325 | 14439 ft | 317 kts | 47° |
| 2026-05-03 20:36 | 4.91710 | -74.08730 | 14542 ft | 338 kts | 47° |
| 2026-05-03 20:36 | 4.93399 | -74.07026 | 14561 ft | 351 kts | 47° |
| 2026-05-03 20:37 | 4.95137 | -74.05279 | 15048 ft | 356 kts | 47° |
| 2026-05-03 20:37 | 4.96897 | -74.03524 | 15596 ft | 358 kts | 47° |
| 2026-05-03 20:37 | 4.98682 | -74.01757 | 16109 ft | 362 kts | 46° |
| 2026-05-03 20:37 | 5.00483 | -73.99978 | 16571 ft | 365 kts | 46° |
| 2026-05-03 20:38 | 5.02545 | -73.98497 | 16695 ft | 369 kts | 27° |
| 2026-05-03 20:38 | 5.04947 | -73.97584 | 16718 ft | 370 kts | 19° |
| 2026-05-03 20:38 | 5.07435 | -73.96914 | 16718 ft | 371 kts | 15° |
| 2026-05-03 20:38 | 5.09963 | -73.96368 | 16718 ft | 372 kts | 14° |
| 2026-05-03 20:39 | 5.12464 | -73.95861 | 16717 ft | 372 kts | 13° |
| 2026-05-03 20:39 | 5.14996 | -73.95329 | 16710 ft | 372 kts | 16° |
| 2026-05-03 20:39 | 5.17523 | -73.94761 | 16710 ft | 371 kts | 17° |
| 2026-05-03 20:39 | 5.20036 | -73.94163 | 16710 ft | 371 kts | 17° |
| 2026-05-03 20:40 | 5.22539 | -73.93544 | 16708 ft | 371 kts | 17° |
| 2026-05-03 20:40 | 5.25038 | -73.92912 | 16733 ft | 372 kts | 17° |
| 2026-05-03 20:40 | 5.27558 | -73.92271 | 16936 ft | 375 kts | 18° |
| 2026-05-03 20:40 | 5.30089 | -73.91629 | 17561 ft | 376 kts | 17° |
| 2026-05-03 20:41 | 5.32640 | -73.90989 | 18124 ft | 379 kts | 17° |
| 2026-05-03 20:41 | 5.35212 | -73.90346 | 18628 ft | 382 kts | 17° |
| 2026-05-03 20:41 | 5.37798 | -73.89701 | 19076 ft | 385 kts | 17° |
| 2026-05-03 20:41 | 5.40366 | -73.89061 | 19516 ft | 387 kts | 17° |
| 2026-05-03 20:42 | 5.42991 | -73.88408 | 19939 ft | 390 kts | 17° |
| 2026-05-03 20:42 | 5.45636 | -73.87749 | 20403 ft | 392 kts | 17° |
| 2026-05-03 20:42 | 5.48299 | -73.87084 | 20850 ft | 395 kts | 17° |
| 2026-05-03 20:42 | 5.50980 | -73.86415 | 21295 ft | 398 kts | 16° |
| 2026-05-03 20:43 | 5.53612 | -73.85555 | 21718 ft | 399 kts | 25° |
| 2026-05-03 20:43 | 5.56081 | -73.84269 | 22140 ft | 401 kts | 31° |
| 2026-05-03 20:43 | 5.58523 | -73.82897 | 22588 ft | 404 kts | 31° |
| 2026-05-03 20:43 | 5.60957 | -73.81535 | 23020 ft | 407 kts | 31° |
| 2026-05-03 20:44 | 5.63437 | -73.80147 | 23455 ft | 410 kts | 31° |
| 2026-05-03 20:44 | 5.65932 | -73.78753 | 23831 ft | 412 kts | 31° |
| 2026-05-03 20:44 | 5.68450 | -73.77345 | 24167 ft | 415 kts | 31° |
| 2026-05-03 20:44 | 5.70979 | -73.75931 | 24498 ft | 417 kts | 31° |
| 2026-05-03 20:45 | 5.73520 | -73.74512 | 24830 ft | 419 kts | 31° |
| 2026-05-03 20:45 | 5.76072 | -73.73087 | 25162 ft | 422 kts | 31° |
| 2026-05-03 20:45 | 5.78642 | -73.71650 | 25482 ft | 424 kts | 31° |
| 2026-05-03 20:45 | 5.81226 | -73.70204 | 25810 ft | 426 kts | 31° |
| 2026-05-03 20:46 | 5.83786 | -73.68772 | 26123 ft | 428 kts | 30° |
| 2026-05-03 20:46 | 5.86394 | -73.67313 | 26411 ft | 431 kts | 30° |
| 2026-05-03 20:46 | 5.89021 | -73.65845 | 26710 ft | 434 kts | 30° |
| 2026-05-03 20:46 | 5.91664 | -73.64368 | 27072 ft | 436 kts | 30° |
| 2026-05-03 20:47 | 5.94330 | -73.62878 | 27433 ft | 439 kts | 30° |
| 2026-05-03 20:47 | 5.97001 | -73.61385 | 27745 ft | 441 kts | 30° |
| 2026-05-03 20:47 | 5.99683 | -73.59884 | 28018 ft | 443 kts | 30° |
| 2026-05-03 20:47 | 6.02379 | -73.58373 | 28311 ft | 445 kts | 30° |
| 2026-05-03 20:48 | 6.05089 | -73.56852 | 28579 ft | 447 kts | 30° |
| 2026-05-03 20:48 | 6.07806 | -73.55330 | 28863 ft | 449 kts | 30° |
| 2026-05-03 20:48 | 6.10498 | -73.53823 | 29137 ft | 450 kts | 30° |
| 2026-05-03 20:48 | 6.13244 | -73.52284 | 29389 ft | 453 kts | 30° |
| 2026-05-03 20:49 | 6.16003 | -73.50738 | 29672 ft | 454 kts | 30° |
| 2026-05-03 20:49 | 6.18770 | -73.49184 | 29940 ft | 457 kts | 30° |
| 2026-05-03 20:49 | 6.21546 | -73.47626 | 30168 ft | 459 kts | 30° |
| 2026-05-03 20:49 | 6.24345 | -73.46057 | 30339 ft | 462 kts | 30° |
| 2026-05-03 20:50 | 6.27162 | -73.44478 | 30566 ft | 464 kts | 30° |
| 2026-05-03 20:50 | 6.29985 | -73.42892 | 30792 ft | 466 kts | 30° |
| 2026-05-03 20:50 | 6.32780 | -73.41324 | 30951 ft | 466 kts | 30° |
| 2026-05-03 20:50 | 6.35584 | -73.39754 | 30996 ft | 453 kts | 30° |
| 2026-05-03 20:51 | 6.38299 | -73.38237 | 30999 ft | 442 kts | 30° |
| 2026-05-03 20:51 | 6.43622 | -73.35256 | 31004 ft | 436 kts | 30° |
| 2026-05-03 20:52 | 6.48906 | -73.32288 | 31004 ft | 435 kts | 30° |
| 2026-05-03 20:52 | 6.54187 | -73.29322 | 31007 ft | 435 kts | 30° |
| 2026-05-03 20:53 | 6.59427 | -73.26382 | 31001 ft | 434 kts | 30° |
| 2026-05-03 20:53 | 6.64719 | -73.23420 | 31001 ft | 434 kts | 30° |
| 2026-05-03 20:54 | 6.69990 | -73.20458 | 31015 ft | 434 kts | 30° |
| 2026-05-03 20:54 | 6.77856 | -73.16035 | 31012 ft | 433 kts | 30° |
| 2026-05-03 20:55 | 6.83117 | -73.13077 | 31010 ft | 434 kts | 30° |
| 2026-05-03 20:55 | 6.88385 | -73.10110 | 31021 ft | 434 kts | 30° |
| 2026-05-03 20:56 | 6.93685 | -73.07128 | 30769 ft | 443 kts | 30° |
| 2026-05-03 20:56 | 6.96407 | -73.05598 | 29809 ft | 451 kts | 30° |
| 2026-05-03 20:56 | 6.99104 | -73.04085 | 29215 ft | 448 kts | 30° |
| 2026-05-03 20:57 | 7.01814 | -73.02565 | 28687 ft | 444 kts | 30° |
| 2026-05-03 20:57 | 7.04497 | -73.01057 | 28151 ft | 439 kts | 30° |
| 2026-05-03 20:57 | 7.07147 | -72.99564 | 27640 ft | 434 kts | 30° |
| 2026-05-03 20:57 | 7.09772 | -72.98082 | 27130 ft | 430 kts | 30° |
| 2026-05-03 20:58 | 7.12364 | -72.96623 | 26644 ft | 425 kts | 30° |
| 2026-05-03 20:58 | 7.14933 | -72.95179 | 26152 ft | 420 kts | 30° |
| 2026-05-03 20:58 | 7.17472 | -72.93752 | 25719 ft | 416 kts | 31° |
| 2026-05-03 20:58 | 7.19992 | -72.92334 | 25243 ft | 414 kts | 30° |
| 2026-05-03 20:59 | 7.22489 | -72.90926 | 24777 ft | 411 kts | 31° |
| 2026-05-03 20:59 | 7.24973 | -72.89524 | 24313 ft | 408 kts | 30° |
| 2026-05-03 20:59 | 7.27410 | -72.88152 | 23831 ft | 406 kts | 31° |
| 2026-05-03 20:59 | 7.29874 | -72.86767 | 23297 ft | 405 kts | 31° |
| 2026-05-03 21:00 | 7.32334 | -72.85384 | 22801 ft | 402 kts | 32° |
| 2026-05-03 21:00 | 7.33945 | -72.84477 | 22483 ft | 401 kts | 32° |
| 2026-05-03 21:00 | 7.37189 | -72.82648 | 21826 ft | 398 kts | 31° |
| 2026-05-03 21:00 | 7.39591 | -72.81295 | 21346 ft | 395 kts | 31° |
| 2026-05-03 21:01 | 7.41979 | -72.79950 | 20883 ft | 392 kts | 32° |
| 2026-05-03 21:01 | 7.44355 | -72.78611 | 20432 ft | 390 kts | 31° |
| 2026-05-03 21:01 | 7.46682 | -72.77302 | 19966 ft | 388 kts | 32° |
| 2026-05-03 21:01 | 7.49018 | -72.75987 | 19642 ft | 382 kts | 31° |
| 2026-05-03 21:02 | 7.51335 | -72.74682 | 19177 ft | 380 kts | 31° |
| 2026-05-03 21:02 | 7.53621 | -72.73402 | 18561 ft | 374 kts | 31° |
| 2026-05-03 21:02 | 7.55882 | -72.72149 | 17843 ft | 367 kts | 32° |
| 2026-05-03 21:02 | 7.58085 | -72.70934 | 17484 ft | 352 kts | 31° |
| 2026-05-03 21:03 | 7.60196 | -72.69770 | 17113 ft | 339 kts | 31° |
| 2026-05-03 21:03 | 7.62231 | -72.68646 | 16708 ft | 329 kts | 31° |
| 2026-05-03 21:03 | 7.64212 | -72.67547 | 16270 ft | 323 kts | 31° |
| 2026-05-03 21:03 | 7.66152 | -72.66441 | 15820 ft | 318 kts | 36° |
| 2026-05-03 21:04 | 7.67764 | -72.64986 | 15377 ft | 315 kts | 53° |
| 2026-05-03 21:04 | 7.68882 | -72.63106 | 14897 ft | 314 kts | 70° |
| 2026-05-03 21:04 | 7.69405 | -72.60976 | 14438 ft | 315 kts | 86° |
| 2026-05-03 21:04 | 7.69287 | -72.58775 | 13950 ft | 316 kts | 103° |
| 2026-05-03 21:05 | 7.68762 | -72.56610 | 13413 ft | 320 kts | 103° |
| 2026-05-03 21:05 | 7.68689 | -72.54377 | 12839 ft | 321 kts | 78° |
| 2026-05-03 21:05 | 7.69654 | -72.52398 | 12452 ft | 313 kts | 51° |
| 2026-05-03 21:05 | 7.71362 | -72.51106 | 12091 ft | 308 kts | 26° |
| 2026-05-03 21:06 | 7.73436 | -72.50707 | 11654 ft | 304 kts | 3° |
| 2026-05-03 21:06 | 7.75492 | -72.50761 | 11235 ft | 296 kts | 0° |
| 2026-05-03 21:06 | 7.77528 | -72.50832 | 10812 ft | 290 kts | 1° |
| 2026-05-03 21:06 | 7.79527 | -72.50904 | 10391 ft | 285 kts | 1° |
| 2026-05-03 21:07 | 7.81522 | -72.50973 | 9992 ft | 288 kts | 0° |
| 2026-05-03 21:07 | 7.83538 | -72.51039 | 9512 ft | 291 kts | 0° |
| 2026-05-03 21:07 | 7.85571 | -72.51105 | 9061 ft | 293 kts | 0° |
| 2026-05-03 21:07 | 7.87596 | -72.51172 | 8534 ft | 289 kts | 1° |
| 2026-05-03 21:08 | 7.89547 | -72.51238 | 8183 ft | 279 kts | 1° |
| 2026-05-03 21:08 | 7.91441 | -72.51303 | 7876 ft | 267 kts | 0° |
| 2026-05-03 21:08 | 7.93257 | -72.51362 | 7599 ft | 256 kts | 2° |
| 2026-05-03 21:08 | 7.95000 | -72.51262 | 7312 ft | 246 kts | 7° |
| 2026-05-03 21:09 | 7.96678 | -72.51157 | 7036 ft | 239 kts | 6° |
| 2026-05-03 21:09 | 7.98311 | -72.51059 | 6753 ft | 231 kts | 7° |
| 2026-05-03 21:09 | 7.99896 | -72.50963 | 6481 ft | 226 kts | 5° |
| 2026-05-03 21:09 | 8.01452 | -72.50867 | 6199 ft | 223 kts | 5° |
| 2026-05-03 21:10 | 8.02981 | -72.50772 | 5904 ft | 222 kts | 7° |
| 2026-05-03 21:10 | 8.04495 | -72.50677 | 5651 ft | 214 kts | 5° |
| 2026-05-03 21:10 | 8.05949 | -72.50754 | 5362 ft | 207 kts | 347° |
| 2026-05-03 21:10 | 8.07232 | -72.51355 | 5075 ft | 202 kts | 323° |
| 2026-05-03 21:11 | 8.08177 | -72.52381 | 4796 ft | 199 kts | 301° |
| 2026-05-03 21:11 | 8.08670 | -72.53668 | 4510 ft | 197 kts | 279° |
| 2026-05-03 21:11 | 8.08661 | -72.55035 | 4216 ft | 195 kts | 258° |
| 2026-05-03 21:11 | 8.08161 | -72.56299 | 3927 ft | 195 kts | 237° |
| 2026-05-03 21:12 | 8.07265 | -72.57283 | 3638 ft | 194 kts | 217° |
| 2026-05-03 21:12 | 8.06064 | -72.57886 | 3356 ft | 194 kts | 195° |
| 2026-05-03 21:12 | 8.04727 | -72.58015 | 3069 ft | 194 kts | 174° |
| 2026-05-03 21:12 | 8.03458 | -72.57658 | 2902 ft | 186 kts | 152° |
| 2026-05-03 21:13 | 8.02360 | -72.56996 | 2819 ft | 183 kts | 147° |
| 2026-05-03 21:13 | 8.01269 | -72.56343 | 2734 ft | 183 kts | 150° |
| 2026-05-03 21:13 | 8.00042 | -72.55986 | 2712 ft | 183 kts | 167° |
| 2026-05-03 21:13 | 7.98792 | -72.55717 | 2715 ft | 183 kts | 167° |
| 2026-05-03 21:14 | 7.97551 | -72.55444 | 2704 ft | 179 kts | 166° |
| 2026-05-03 21:14 | 7.96374 | -72.55184 | 2650 ft | 177 kts | 166° |
| 2026-05-03 21:14 | 7.95220 | -72.54931 | 2680 ft | 164 kts | 165° |
| 2026-05-03 21:14 | 7.94125 | -72.54688 | 2681 ft | 159 kts | 165° |
| 2026-05-03 21:15 | 7.93045 | -72.54447 | 2701 ft | 158 kts | 164° |
| 2026-05-03 21:15 | 7.91974 | -72.54208 | 2711 ft | 159 kts | 164° |
| 2026-05-03 21:15 | 7.90890 | -72.53968 | 2712 ft | 161 kts | 166° |
| 2026-05-03 21:15 | 7.89794 | -72.53724 | 2644 ft | 160 kts | 164° |
| 2026-05-03 21:16 | 7.88724 | -72.53488 | 2601 ft | 153 kts | 165° |
| 2026-05-03 21:16 | 7.87673 | -72.53257 | 2626 ft | 155 kts | 166° |
| 2026-05-03 21:16 | 7.86654 | -72.53032 | 2604 ft | 150 kts | 165° |
| 2026-05-03 21:16 | 7.85663 | -72.52744 | 2604 ft | 146 kts | 151° |
| 2026-05-03 21:17 | 7.84875 | -72.52141 | 2617 ft | 141 kts | 130° |
| 2026-05-03 21:17 | 7.84508 | -72.51590 | 2674 ft | 139 kts | 115° |
| 2026-05-03 21:17 | 7.84252 | -72.50336 | 2674 ft | 142 kts | 86° |
| 2026-05-03 21:17 | 7.84494 | -72.49381 | 2632 ft | 143 kts | 66° |
| 2026-05-03 21:18 | 7.85081 | -72.48589 | 2460 ft | 141 kts | 45° |
| 2026-05-03 21:18 | 7.85919 | -72.48087 | 2315 ft | 142 kts | 19° |
| 2026-05-03 21:18 | 7.86896 | -72.47948 | 2176 ft | 143 kts | 358° |
| 2026-05-03 21:18 | 7.87852 | -72.48197 | 2019 ft | 146 kts | 336° |
| 2026-05-03 21:19 | 7.88724 | -72.48721 | 1817 ft | 145 kts | 330° |
| 2026-05-03 21:19 | 7.89598 | -72.49250 | 1668 ft | 145 kts | 332° |
| 2026-05-03 21:19 | 7.90453 | -72.49768 | 1489 ft | 144 kts | 331° |
| 2026-05-03 21:19 | 7.91289 | -72.50295 | 1321 ft | 138 kts | 329° |
| 2026-05-03 21:20 | 7.92097 | -72.50777 | 1098 ft | 131 kts | 330° |
| 2026-05-03 21:20 | 7.92871 | -72.51239 | 1035 ft | 120 kts | 329° |
| 2026-05-03 21:20 | 7.93345 | -72.51531 | 1050 ft | 36 kts | 329° |
| 2026-05-03 21:20 | 7.93490 | -72.51616 | 1060 ft | 21 kts | 330° |
| 2026-05-03 21:21 | 7.93574 | -72.51661 | 1066 ft | 4 kts | 257° |
| 2026-05-03 21:21 | 7.93541 | -72.51648 | 1066 ft | 8 kts | 149° |
| 2026-05-03 21:21 | 7.93478 | -72.51610 | 1059 ft | 13 kts | 148° |
| 2026-05-03 21:21 | 7.93386 | -72.51553 | 1053 ft | 18 kts | 148° |
| 2026-05-03 21:22 | 7.93257 | -72.51476 | 1044 ft | 24 kts | 148° |
| 2026-05-03 21:22 | 7.93103 | -72.51382 | 1040 ft | 27 kts | 148° |
| 2026-05-03 21:22 | 7.92939 | -72.51283 | 1034 ft | 20 kts | 149° |
| 2026-05-03 21:22 | 7.92821 | -72.51213 | 1034 ft | 20 kts | 149° |
| 2026-05-03 21:23 | 7.92735 | -72.51139 | 1032 ft | 16 kts | 95° |
| 2026-05-03 21:23 | 7.92773 | -72.51043 | 1032 ft | 13 kts | 74° |
| 2026-05-03 21:23 | 7.92806 | -72.50956 | 1032 ft | 13 kts | 61° |
| 2026-05-03 21:23 | 7.92868 | -72.50889 | 1032 ft | 12 kts | 63° |
| 2026-05-03 21:24 | 7.92848 | -72.50812 | 1032 ft | 12 kts | 117° |
| 2026-05-03 21:24 | 7.92814 | -72.50750 | 1032 ft | 7 kts | 135° |
| 2026-05-03 21:24 | 7.92772 | -72.50755 | 1032 ft | 6 kts | 206° |
| 2026-05-03 21:24 | 7.92759 | -72.50761 | 1032 ft | 1 kts | 207° |
| 2026-05-03 21:25 | 7.92757 | -72.50763 | 1032 ft | 0 kts | 207° |